createdAt,value
2023-01-10T00:03:53.176Z,67.80
2023-01-10T00:09:06.904Z,74.00
2023-01-10T00:14:21.158Z,82.30
2023-01-10T00:14:57.042Z,0
2023-01-10T00:16:47.926Z,77.03
2023-01-10T00:19:18.227Z,74.78
2023-01-10T00:21:44.972Z,71.22
2023-01-10T00:24:12.333Z,77.35
2023-01-10T00:29:27.951Z,77.40
2023-01-10T00:31:55.178Z,67.88
2023-01-10T00:34:21.943Z,66.60
2023-01-10T00:36:48.908Z,69.00
2023-01-10T00:42:03.539Z,62.20
2023-01-10T00:47:17.224Z,56.65
2023-01-10T00:52:30.798Z,64.13
2023-01-10T00:54:57.665Z,66.13
2023-01-10T00:57:24.449Z,63.42
2023-01-10T00:59:51.193Z,56.20
2023-01-10T01:02:18.047Z,56.42
2023-01-10T01:04:44.840Z,74.13
2023-01-10T01:07:11.634Z,61.20
2023-01-10T01:09:38.396Z,60.55
2023-01-10T01:12:05.286Z,61.95
2023-01-10T01:14:32.053Z,56.03
2023-01-10T01:16:58.796Z,54.67
2023-01-10T01:19:25.603Z,58.33
2023-01-10T01:21:52.363Z,59.55
2023-01-10T01:24:19.151Z,55.30
2023-01-10T01:26:45.914Z,50.88
2023-01-10T01:29:12.638Z,56.92
2023-01-10T01:31:39.394Z,54.28
2023-01-10T01:36:52.890Z,52.30
2023-01-10T01:42:06.909Z,47.83
2023-01-10T01:47:27.421Z,57.40
2023-01-10T01:52:42.229Z,54.03
2023-01-10T01:57:59.155Z,55.30
2023-01-10T02:03:14.287Z,56.58
2023-01-10T02:08:29.799Z,59.25
2023-01-10T02:11:09.434Z,53.88
2023-01-10T02:13:42.966Z,49.10
2023-01-10T02:16:10.101Z,53.45
2023-01-10T02:18:40.451Z,51.78
2023-01-10T02:30:53.434Z,48.30
2023-01-10T02:33:38.233Z,52.63
2023-01-10T02:39:16.037Z,47.22
2023-01-10T02:41:53.035Z,49.97
2023-01-10T02:47:42.167Z,47.13
2023-01-10T02:50:49.219Z,50.28
2023-01-10T02:53:22.598Z,43.20
2023-01-10T02:56:16.904Z,43.40
2023-01-10T02:59:21.257Z,44.88
2023-01-10T03:02:21.265Z,43.65
2023-01-10T03:05:14.697Z,46.63
2023-01-10T03:10:52.343Z,44.97
2023-01-10T03:13:29.962Z,37.63
2023-01-10T03:15:59.847Z,40.08
2023-01-10T03:18:50.089Z,44.25
2023-01-10T03:21:18.893Z,41.80
2023-01-10T03:27:13.152Z,42.05
2023-01-10T03:29:51.502Z,37.10
2023-01-10T03:32:23.720Z,39.35
2023-01-10T03:34:50.649Z,38.55
2023-01-10T03:37:36.612Z,34.00
2023-01-10T03:40:22.863Z,36.75
2023-01-10T03:43:01.365Z,37.20
2023-01-10T03:45:33.728Z,36.05
2023-01-10T03:50:52.331Z,33.15
2023-01-10T03:56:07.358Z,26.77
2023-01-10T04:01:20.952Z,28.02
2023-01-10T04:06:34.563Z,24.38
2023-01-10T04:09:01.346Z,28.30
2023-01-10T04:11:28.135Z,23.73
2023-01-10T04:13:54.932Z,28.80
2023-01-10T04:16:21.729Z,24.50
2023-01-10T04:18:48.625Z,23.17
2023-01-10T04:21:15.499Z,25.98
2023-01-10T04:23:42.283Z,28.70
2023-01-10T04:26:09.352Z,26.58
2023-01-10T04:28:36.093Z,28.10
2023-01-10T04:31:02.815Z,25.80
2023-01-10T04:33:29.744Z,27.73
2023-01-10T04:35:56.521Z,24.50
2023-01-10T04:38:23.297Z,28.38
2023-01-10T04:40:57.312Z,23.67
2023-01-10T04:43:26.904Z,26.85
2023-01-10T04:48:40.359Z,27.77
2023-01-10T04:51:07.264Z,24.83
2023-01-10T04:53:34.016Z,24.05
2023-01-10T04:56:06.152Z,25.55
2023-01-10T05:01:23.943Z,26.30
2023-01-10T05:06:38.348Z,21.05
2023-01-10T05:11:52.354Z,25.55
2023-01-10T05:14:19.123Z,25.30
2023-01-10T05:16:45.978Z,27.15
2023-01-10T05:19:12.946Z,31.60
2023-01-10T05:21:39.715Z,21.10
2023-01-10T05:24:06.853Z,29.35
2023-01-10T05:26:33.703Z,23.60
2023-01-10T05:29:00.482Z,25.20
2023-01-10T05:31:27.273Z,24.25
2023-01-10T05:33:54.047Z,28.20
2023-01-10T05:36:20.886Z,30.00
2023-01-10T05:38:47.687Z,24.60
2023-01-10T05:41:14.440Z,25.67
2023-01-10T05:43:41.330Z,26.63
2023-01-10T05:46:08.285Z,22.63
2023-01-10T05:48:35.471Z,27.05
2023-01-10T05:51:02.267Z,26.27
2023-01-10T05:53:29.138Z,24.02
2023-01-10T05:55:58.452Z,26.80
2023-01-10T05:58:25.703Z,24.40
2023-01-10T06:00:54.637Z,27.00
2023-01-10T06:03:21.433Z,24.10
2023-01-10T06:05:49.002Z,26.45
2023-01-10T06:08:16.777Z,26.13
2023-01-10T06:10:43.947Z,23.90
2023-01-10T06:13:10.859Z,29.60
2023-01-10T06:15:37.749Z,24.23
2023-01-10T06:18:04.773Z,36.85
2023-01-10T06:20:31.809Z,24.83
2023-01-10T06:22:58.679Z,27.60
2023-01-10T06:25:25.515Z,24.90
2023-01-10T06:27:52.279Z,26.20
2023-01-10T06:30:19.096Z,25.95
2023-01-10T06:32:45.892Z,25.25
2023-01-10T06:35:12.666Z,23.15
2023-01-10T06:40:27.438Z,23.02
2023-01-10T06:45:40.999Z,51.25
2023-01-10T06:50:54.502Z,23.92
2023-01-10T06:53:21.247Z,24.93
2023-01-10T06:55:47.985Z,24.60
2023-01-10T06:58:14.726Z,21.42
2023-01-10T07:00:41.508Z,23.88
2023-01-10T07:03:09.799Z,24.13
2023-01-10T07:05:36.544Z,22.58
2023-01-10T07:08:03.326Z,22.88
2023-01-10T07:10:30.102Z,23.67
2023-01-10T07:12:57.773Z,22.33
2023-01-10T07:15:25.492Z,26.17
2023-01-10T07:17:52.244Z,29.98
2023-01-10T07:20:19.784Z,27.38
2023-01-10T07:25:44.276Z,20.33
2023-01-10T07:31:02.016Z,20.45
2023-01-10T07:36:16.784Z,24.77
2023-01-10T07:36:41.615Z,0
2023-01-10T07:38:43.520Z,25.05
2023-01-10T07:41:10.711Z,22.40
2023-01-10T07:43:37.616Z,22.65
2023-01-10T07:46:06.687Z,21.90
2023-01-10T07:48:33.613Z,22.77
2023-01-10T07:51:01.954Z,24.48
2023-01-10T07:53:29.634Z,26.48
2023-01-10T07:56:01.061Z,25.48
2023-01-10T07:58:28.718Z,22.40
2023-01-10T08:03:46.967Z,20.25
2023-01-10T08:06:16.570Z,25.73
2023-01-10T08:08:43.470Z,23.43
2023-01-10T08:11:10.242Z,20.20
2023-01-10T08:13:37.024Z,23.40
2023-01-10T08:16:07.875Z,26.93
2023-01-10T08:18:35.135Z,26.67
2023-01-10T08:21:01.902Z,25.08
2023-01-10T08:23:28.683Z,27.25
2023-01-10T08:25:58.832Z,22.77
2023-01-10T08:28:25.771Z,22.90
2023-01-10T08:30:52.812Z,25.63
2023-01-10T08:33:19.605Z,22.08
2023-01-10T08:35:46.408Z,26.58
2023-01-10T08:38:13.170Z,23.50
2023-01-10T08:40:39.962Z,26.63
2023-01-10T08:43:09.633Z,27.48
2023-01-10T08:45:37.605Z,29.00
2023-01-10T08:48:05.806Z,25.75
2023-01-10T08:50:32.626Z,28.00
2023-01-10T08:52:59.589Z,23.48
2023-01-10T08:55:27.136Z,24.33
2023-01-10T08:57:54.321Z,23.35
2023-01-10T09:00:21.580Z,26.83
2023-01-10T09:02:48.432Z,27.73
2023-01-10T09:05:26.258Z,26.27
2023-01-10T09:07:58.219Z,23.98
2023-01-10T09:10:24.988Z,26.47
2023-01-10T09:12:51.736Z,22.55
2023-01-10T09:15:18.606Z,23.48
2023-01-10T09:17:45.419Z,28.23
2023-01-10T09:20:12.443Z,22.52
2023-01-10T09:22:39.613Z,20.10
2023-01-10T09:25:06.968Z,20.40
2023-01-10T09:27:33.992Z,21.40
2023-01-10T09:30:00.753Z,20.23
2023-01-10T09:32:27.664Z,19.42
2023-01-10T09:34:54.407Z,21.40
2023-01-10T09:37:21.176Z,18.85
2023-01-10T09:39:47.973Z,20.88
2023-01-10T09:42:44.625Z,21.58
2023-01-10T09:45:25.637Z,21.60
2023-01-10T09:48:03.144Z,17.50
2023-01-10T09:53:46.631Z,20.60
2023-01-10T09:56:15.833Z,19.75
2023-01-10T09:58:44.528Z,19.73
2023-01-10T10:01:21.754Z,22.48
2023-01-10T10:04:17.576Z,16.60
2023-01-10T10:06:14.068Z,0
2023-01-10T10:06:44.459Z,19.65
2023-01-10T10:09:18.898Z,16.23
2023-01-10T10:12:09.639Z,17.85
2023-01-10T10:14:57.848Z,19.38
2023-01-10T10:24:06.480Z,16.77
2023-01-10T10:26:36.368Z,18.92
2023-01-10T10:29:14.368Z,16.00
2023-01-10T10:31:53.779Z,18.73
2023-01-10T10:37:33.714Z,19.10
2023-01-10T10:40:24.020Z,19.50
2023-01-10T10:42:56.027Z,19.85
2023-01-10T10:45:47.021Z,21.40
2023-01-10T10:48:20.240Z,19.10
2023-01-10T10:50:56.089Z,18.60
2023-01-10T10:53:22.905Z,17.80
2023-01-10T10:55:51.146Z,18.38
2023-01-10T10:58:18.802Z,19.23
2023-01-10T11:00:46.083Z,17.77
2023-01-10T11:06:10.597Z,17.33
2023-01-10T11:11:32.674Z,16.23
2023-01-10T11:14:02.262Z,17.75
2023-01-10T11:16:42.109Z,14.60
2023-01-10T11:19:26.348Z,17.33
2023-01-10T11:22:02.264Z,14.82
2023-01-10T11:27:45.745Z,18.83
2023-01-10T11:30:23.310Z,17.70
2023-01-10T11:36:54.648Z,0
2023-01-10T11:38:31.091Z,19.52
2023-01-10T11:41:03.088Z,19.20
2023-01-10T11:43:31.496Z,21.73
2023-01-10T11:46:02.085Z,15.53
2023-01-10T11:47:47.012Z,0
2023-01-10T11:49:10.029Z,17.63
2023-01-10T11:49:20.400Z,0
2023-01-10T11:51:40.562Z,16.65
2023-01-10T11:54:13.051Z,18.48
2023-01-10T11:56:40.193Z,15.25
2023-01-10T11:59:11.012Z,18.05
2023-01-10T12:04:59.546Z,16.05
2023-01-10T12:10:21.634Z,16.27
2023-01-10T12:12:56.685Z,13.95
2023-01-10T12:15:28.804Z,16.27
2023-01-10T12:20:51.880Z,16.90
2023-01-10T12:23:22.913Z,16.42
2023-01-10T12:25:53.263Z,15.40
2023-01-10T12:31:16.560Z,14.60
2023-01-10T12:36:51.060Z,16.75
2023-01-10T12:39:32.766Z,18.65
2023-01-10T12:42:08.692Z,20.15
2023-01-10T12:44:44.383Z,17.52
2023-01-10T12:47:15.363Z,0
2023-01-10T12:47:26.341Z,18.65
2023-01-10T12:50:13.912Z,22.33
2023-01-10T12:52:49.353Z,17.92
2023-01-10T12:55:21.547Z,16.70
2023-01-10T12:57:52.284Z,17.27
2023-01-10T13:00:47.764Z,18.58
2023-01-10T13:03:25.576Z,17.20
2023-01-10T13:05:52.424Z,20.30
2023-01-10T13:08:23.661Z,18.97
2023-01-10T13:10:54.526Z,20.73
2023-01-10T13:13:34.895Z,19.70
2023-01-10T13:16:23.154Z,18.23
2023-01-10T13:19:01.669Z,16.17
2023-01-10T13:21:29.423Z,17.80
2023-01-10T13:24:05.072Z,20.10
2023-01-10T13:26:53.446Z,21.08
2023-01-10T13:29:26.026Z,18.25
2023-01-10T13:34:41.084Z,24.25
2023-01-10T13:37:25.954Z,18.67
2023-01-10T13:39:59.554Z,18.80
2023-01-10T13:45:30.594Z,22.58
2023-01-10T13:47:59.845Z,18.17
2023-01-10T13:50:26.599Z,20.20
2023-01-10T13:53:19.062Z,15.73
2023-01-10T13:55:45.821Z,16.25
2023-01-10T13:58:15.389Z,21.07
2023-01-10T14:00:55.385Z,20.75
2023-01-10T14:06:30.976Z,17.95
2023-01-10T14:11:58.855Z,18.13
2023-01-10T14:14:35.669Z,19.15
2023-01-10T14:17:25.661Z,18.83
2023-01-10T14:20:10.749Z,15.40
2023-01-10T14:22:40.479Z,20.08
2023-01-10T14:25:20.522Z,23.35
2023-01-10T14:27:50.959Z,20.73
2023-01-10T14:30:33.060Z,17.95
2023-01-10T14:33:21.869Z,15.85
2023-01-10T14:35:56.149Z,23.38
2023-01-10T14:38:24.790Z,18.00
2023-01-10T14:40:57.445Z,21.42
2023-01-10T14:43:28.575Z,21.23
2023-01-10T14:46:17.726Z,20.40
2023-01-10T14:48:51.662Z,17.85
2023-01-10T14:51:31.398Z,19.55
2023-01-10T14:54:18.383Z,19.80
2023-01-10T14:56:47.889Z,18.45
2023-01-10T14:59:34.412Z,18.75
2023-01-10T15:02:04.526Z,19.43
2023-01-10T15:04:33.536Z,18.03
2023-01-10T15:07:03.171Z,17.63
2023-01-10T15:09:31.838Z,18.80
2023-01-10T15:12:01.926Z,16.83
2023-01-10T15:14:30.214Z,24.08
2023-01-10T15:17:01.383Z,16.45
2023-01-10T15:19:33.679Z,15.32
2023-01-10T15:22:00.523Z,19.63
2023-01-10T15:24:37.408Z,20.23
2023-01-10T15:27:06.509Z,23.35
2023-01-10T15:29:34.273Z,20.23
2023-01-10T15:32:10.479Z,18.52
2023-01-10T15:34:38.291Z,21.05
2023-01-10T15:37:07.251Z,21.23
2023-01-10T15:39:40.528Z,20.20
2023-01-10T15:42:10.073Z,16.65
2023-01-10T15:47:34.905Z,17.20
2023-01-10T15:50:02.178Z,18.80
2023-01-10T15:52:28.916Z,19.75
2023-01-10T15:54:55.825Z,21.55
2023-01-10T15:57:30.507Z,19.05
2023-01-10T15:59:57.919Z,19.37
2023-01-10T16:02:32.963Z,20.63
2023-01-10T16:05:15.302Z,18.48
2023-01-10T16:07:45.223Z,19.63
2023-01-10T16:10:26.989Z,22.70
2023-01-10T16:13:08.306Z,19.13
2023-01-10T16:15:37.643Z,22.17
2023-01-10T16:18:04.949Z,20.67
2023-01-10T16:20:34.594Z,20.47
2023-01-10T16:23:02.672Z,19.88
2023-01-10T16:25:35.423Z,19.48
2023-01-10T16:30:49.184Z,18.23
2023-01-10T16:36:18.988Z,18.27
2023-01-10T16:38:46.326Z,18.33
2023-01-10T16:41:13.948Z,19.23
2023-01-10T16:43:40.681Z,18.67
2023-01-10T16:46:07.468Z,23.47
2023-01-10T16:48:34.242Z,18.65
2023-01-10T16:54:05.903Z,17.73
2023-01-10T16:59:19.384Z,18.33
2023-01-10T17:04:40.224Z,24.17
2023-01-10T17:09:53.775Z,22.45
2023-01-10T17:15:11.414Z,23.00
2023-01-10T17:20:25.067Z,21.67
2023-01-10T17:22:51.861Z,26.13
2023-01-10T17:25:18.763Z,20.50
2023-01-10T17:27:45.506Z,21.88
2023-01-10T17:30:13.285Z,18.40
2023-01-10T17:32:40.740Z,18.58
2023-01-10T17:35:08.240Z,20.58
2023-01-10T17:37:35.897Z,22.30
2023-01-10T17:40:04.545Z,23.42
2023-01-10T17:42:31.528Z,20.87
2023-01-10T17:44:58.322Z,20.42
2023-01-10T17:47:25.090Z,23.00
2023-01-10T17:49:51.978Z,22.37
2023-01-10T17:52:18.818Z,21.67
2023-01-10T17:54:45.689Z,19.48
2023-01-10T17:57:12.470Z,25.30
2023-01-10T17:59:39.239Z,22.88
2023-01-10T18:04:52.987Z,23.05
2023-01-10T18:06:27.476Z,0
2023-01-10T18:07:19.751Z,24.23
2023-01-10T18:09:46.544Z,27.63
2023-01-10T18:12:13.321Z,24.17
2023-01-10T18:14:40.079Z,22.95
2023-01-10T18:17:09.854Z,21.92
2023-01-10T18:19:36.799Z,23.93
2023-01-10T18:22:07.125Z,23.50
2023-01-10T18:24:33.940Z,21.20
2023-01-10T18:27:00.705Z,22.67
2023-01-10T18:28:44.901Z,0
2023-01-10T18:29:27.523Z,20.73
2023-01-10T18:31:54.269Z,19.58
2023-01-10T18:34:21.108Z,23.88
2023-01-10T18:36:47.893Z,21.80
2023-01-10T18:39:14.693Z,23.10
2023-01-10T18:41:41.460Z,21.77
2023-01-10T18:44:08.229Z,21.23
2023-01-10T18:46:35.001Z,26.23
2023-01-10T18:49:01.751Z,24.27
2023-01-10T18:51:28.513Z,23.00
2023-01-10T18:53:55.290Z,20.02
2023-01-10T18:56:22.154Z,23.23
2023-01-10T18:58:48.925Z,22.73
2023-01-10T19:01:20.935Z,22.33
2023-01-10T19:03:48.138Z,20.42
2023-01-10T19:06:16.786Z,21.92
2023-01-10T19:08:45.583Z,18.85
2023-01-10T19:11:15.814Z,22.00
2023-01-10T19:13:44.577Z,20.13
2023-01-10T19:16:15.392Z,17.20
2023-01-10T19:21:31.802Z,17.67
2023-01-10T19:24:10.454Z,18.45
2023-01-10T19:26:37.257Z,15.90
2023-01-10T19:29:04.961Z,18.55
2023-01-10T19:31:32.053Z,20.25
2023-01-10T19:34:00.110Z,17.33
2023-01-10T19:36:27.768Z,17.95
2023-01-10T19:38:55.943Z,16.02
2023-01-10T19:41:23.852Z,17.60
2023-01-10T19:43:58.570Z,18.52
2023-01-10T19:46:26.262Z,17.23
2023-01-10T19:48:55.651Z,16.25
2023-01-10T19:54:10.192Z,13.85
2023-01-10T19:56:36.955Z,16.03
2023-01-10T19:59:04.074Z,15.82
2023-01-10T20:01:31.884Z,22.25
2023-01-10T20:06:48.331Z,12.13
2023-01-10T20:12:02.104Z,13.80
2023-01-10T20:14:28.912Z,13.55
2023-01-10T20:16:55.729Z,13.80
2023-01-10T20:19:22.558Z,13.15
2023-01-10T20:21:49.630Z,12.77
2023-01-10T20:24:19.913Z,15.00
2023-01-10T20:26:49.402Z,12.15
2023-01-10T20:32:03.789Z,18.17
2023-01-10T20:37:17.338Z,12.55
2023-01-10T20:39:44.065Z,12.13
2023-01-10T20:42:10.824Z,12.60
2023-01-10T20:44:37.583Z,13.25
2023-01-10T20:47:04.412Z,11.85
2023-01-10T20:49:31.212Z,9.98
2023-01-10T20:51:57.958Z,11.63
2023-01-10T20:54:24.710Z,12.43
2023-01-10T20:56:51.550Z,13.10
2023-01-10T20:59:18.399Z,12.20
2023-01-10T21:01:45.555Z,13.82
2023-01-10T21:04:12.414Z,10.63
2023-01-10T21:06:39.267Z,10.85
2023-01-10T21:09:06.149Z,12.20
2023-01-10T21:11:38.785Z,12.45
2023-01-10T21:14:11.100Z,8.45
2023-01-10T21:16:37.877Z,10.57
2023-01-10T21:19:04.661Z,11.00
2023-01-10T21:21:31.633Z,10.88
2023-01-10T21:23:58.431Z,11.25
2023-01-10T21:26:25.167Z,11.10
2023-01-10T21:28:51.998Z,16.40
2023-01-10T21:31:21.251Z,11.52
2023-01-10T21:33:48.465Z,11.40
2023-01-10T21:36:15.455Z,10.53
2023-01-10T21:38:42.340Z,10.45
2023-01-10T21:41:20.010Z,8.82
2023-01-10T21:43:46.778Z,10.68
2023-01-10T21:46:13.510Z,12.00
2023-01-10T21:48:40.280Z,11.32
2023-01-10T21:51:07.076Z,13.83
2023-01-10T21:53:33.804Z,14.90
2023-01-10T21:56:00.909Z,11.38
2023-01-10T21:58:27.670Z,10.43
2023-01-10T22:00:58.341Z,10.85
2023-01-10T22:03:25.229Z,11.38
2023-01-10T22:05:52.040Z,12.97
2023-01-10T22:08:18.897Z,14.07
2023-01-10T22:10:45.645Z,13.68
2023-01-10T22:13:12.466Z,13.50
2023-01-10T22:15:39.217Z,9.80
2023-01-10T22:18:06.026Z,9.90
2023-01-10T22:20:32.814Z,11.80
2023-01-10T22:22:59.551Z,9.80
2023-01-10T22:25:26.639Z,10.93
2023-01-10T22:27:53.416Z,11.48
2023-01-10T22:30:20.243Z,10.93
2023-01-10T22:32:46.991Z,13.75
2023-01-10T22:35:13.861Z,13.73
2023-01-10T22:37:41.008Z,10.98
2023-01-10T22:40:08.569Z,11.63
2023-01-10T22:42:35.363Z,11.15
2023-01-10T22:45:02.113Z,10.70
2023-01-10T22:50:17.480Z,13.50
2023-01-10T22:55:34.533Z,14.00
2023-01-10T23:00:51.654Z,11.57
2023-01-10T23:06:05.923Z,12.80
2023-01-10T23:08:33.261Z,13.10
2023-01-10T23:11:00.372Z,12.98
2023-01-10T23:13:27.136Z,14.23
2023-01-10T23:16:06.222Z,13.40
2023-01-10T23:18:34.244Z,14.32
2023-01-10T23:21:01.502Z,13.23
2023-01-10T23:23:28.714Z,13.27
2023-01-10T23:26:01.434Z,13.95
2023-01-10T23:28:42.959Z,13.30
2023-01-10T23:31:10.043Z,13.63
2023-01-10T23:33:36.897Z,18.63
2023-01-10T23:38:51.468Z,14.90
2023-01-10T23:44:05.131Z,13.77
2023-01-10T23:49:18.556Z,14.27
2023-01-10T23:51:45.316Z,14.30
2023-01-10T23:54:12.164Z,15.30
2023-01-10T23:56:38.931Z,13.02
2023-01-10T23:59:05.723Z,12.40
